sensor_id;sensor_type;location;lat;lon;timestamp;P1;durP1;ratioP1;P2;durP2;ratioP2
6406;SDS011;3236;51.022;6.818;2022-07-23T00:00:22;55.75;;;31.45;;
6406;SDS011;3236;51.022;6.818;2022-07-23T00:02:49;53.60;;;31.70;;
6406;SDS011;3236;51.022;6.818;2022-07-23T00:05:16;62.58;;;33.13;;
6406;SDS011;3236;51.022;6.818;2022-07-23T00:07:43;71.28;;;35.10;;
6406;SDS011;3236;51.022;6.818;2022-07-23T00:10:10;69.38;;;35.92;;
6406;SDS011;3236;51.022;6.818;2022-07-23T00:12:39;78.35;;;36.10;;
6406;SDS011;3236;51.022;6.818;2022-07-23T00:15:06;76.95;;;38.22;;
6406;SDS011;3236;51.022;6.818;2022-07-23T00:17:35;68.20;;;36.78;;
6406;SDS011;3236;51.022;6.818;2022-07-23T00:20:02;76.63;;;35.85;;
6406;SDS011;3236;51.022;6.818;2022-07-23T00:22:30;88.22;;;38.95;;
6406;SDS011;3236;51.022;6.818;2022-07-23T00:24:57;80.88;;;36.72;;
6406;SDS011;3236;51.022;6.818;2022-07-23T00:27:24;82.15;;;38.97;;
6406;SDS011;3236;51.022;6.818;2022-07-23T00:29:53;86.53;;;40.17;;
6406;SDS011;3236;51.022;6.818;2022-07-23T00:32:20;96.65;;;42.78;;
6406;SDS011;3236;51.022;6.818;2022-07-23T00:34:47;91.60;;;40.67;;
6406;SDS011;3236;51.022;6.818;2022-07-23T00:37:14;85.72;;;41.05;;
6406;SDS011;3236;51.022;6.818;2022-07-23T00:39:42;93.55;;;40.67;;
6406;SDS011;3236;51.022;6.818;2022-07-23T00:42:11;90.13;;;42.00;;
6406;SDS011;3236;51.022;6.818;2022-07-23T00:44:38;89.40;;;40.38;;
6406;SDS011;3236;51.022;6.818;2022-07-23T00:47:07;84.22;;;39.92;;
6406;SDS011;3236;51.022;6.818;2022-07-23T00:49:40;80.47;;;38.20;;
6406;SDS011;3236;51.022;6.818;2022-07-23T00:52:07;77.72;;;36.53;;
6406;SDS011;3236;51.022;6.818;2022-07-23T00:54:34;73.72;;;36.65;;
6406;SDS011;3236;51.022;6.818;2022-07-23T00:57:02;80.65;;;36.40;;
6406;SDS011;3236;51.022;6.818;2022-07-23T00:59:30;77.88;;;35.58;;
6406;SDS011;3236;51.022;6.818;2022-07-23T01:01:57;77.88;;;36.65;;
6406;SDS011;3236;51.022;6.818;2022-07-23T01:04:25;73.70;;;35.75;;
6406;SDS011;3236;51.022;6.818;2022-07-23T01:06:52;74.68;;;36.03;;
6406;SDS011;3236;51.022;6.818;2022-07-23T01:09:20;70.00;;;34.35;;
6406;SDS011;3236;51.022;6.818;2022-07-23T01:11:50;67.35;;;33.90;;
6406;SDS011;3236;51.022;6.818;2022-07-23T01:14:21;69.18;;;34.35;;
6406;SDS011;3236;51.022;6.818;2022-07-23T01:16:51;72.22;;;35.67;;
6406;SDS011;3236;51.022;6.818;2022-07-23T01:19:18;67.85;;;36.25;;
6406;SDS011;3236;51.022;6.818;2022-07-23T01:21:48;71.63;;;36.15;;
6406;SDS011;3236;51.022;6.818;2022-07-23T01:24:18;76.47;;;37.90;;
6406;SDS011;3236;51.022;6.818;2022-07-23T01:26:46;76.72;;;37.80;;
6406;SDS011;3236;51.022;6.818;2022-07-23T01:29:15;81.88;;;38.72;;
6406;SDS011;3236;51.022;6.818;2022-07-23T01:31:42;68.68;;;36.92;;
6406;SDS011;3236;51.022;6.818;2022-07-23T01:34:09;76.38;;;36.05;;
6406;SDS011;3236;51.022;6.818;2022-07-23T01:36:37;80.93;;;37.53;;
6406;SDS011;3236;51.022;6.818;2022-07-23T01:39:04;75.28;;;35.70;;
6406;SDS011;3236;51.022;6.818;2022-07-23T01:41:34;77.78;;;38.03;;
6406;SDS011;3236;51.022;6.818;2022-07-23T01:44:01;79.43;;;38.95;;
6406;SDS011;3236;51.022;6.818;2022-07-23T01:46:28;81.20;;;37.65;;
6406;SDS011;3236;51.022;6.818;2022-07-23T01:48:55;84.88;;;38.63;;
6406;SDS011;3236;51.022;6.818;2022-07-23T01:51:22;88.53;;;39.97;;
6406;SDS011;3236;51.022;6.818;2022-07-23T01:53:49;88.70;;;38.85;;
6406;SDS011;3236;51.022;6.818;2022-07-23T01:56:16;91.72;;;41.50;;
6406;SDS011;3236;51.022;6.818;2022-07-23T01:58:47;88.30;;;40.65;;
6406;SDS011;3236;51.022;6.818;2022-07-23T02:01:14;99.40;;;42.80;;
6406;SDS011;3236;51.022;6.818;2022-07-23T02:03:41;103.97;;;42.90;;
6406;SDS011;3236;51.022;6.818;2022-07-23T02:06:08;106.90;;;42.50;;
6406;SDS011;3236;51.022;6.818;2022-07-23T02:08:35;105.28;;;42.15;;
6406;SDS011;3236;51.022;6.818;2022-07-23T02:11:02;124.07;;;44.53;;
6406;SDS011;3236;51.022;6.818;2022-07-23T02:13:30;120.75;;;44.28;;
6406;SDS011;3236;51.022;6.818;2022-07-23T02:15:58;112.25;;;44.72;;
6406;SDS011;3236;51.022;6.818;2022-07-23T02:18:25;120.13;;;45.55;;
6406;SDS011;3236;51.022;6.818;2022-07-23T02:20:52;113.15;;;44.08;;
6406;SDS011;3236;51.022;6.818;2022-07-23T02:23:19;110.90;;;44.65;;
6406;SDS011;3236;51.022;6.818;2022-07-23T02:25:46;128.27;;;44.95;;
6406;SDS011;3236;51.022;6.818;2022-07-23T02:28:13;106.70;;;44.45;;
6406;SDS011;3236;51.022;6.818;2022-07-23T02:30:40;118.90;;;45.08;;
6406;SDS011;3236;51.022;6.818;2022-07-23T02:33:09;110.35;;;42.83;;
6406;SDS011;3236;51.022;6.818;2022-07-23T02:35:36;118.90;;;45.50;;
6406;SDS011;3236;51.022;6.818;2022-07-23T02:38:03;115.10;;;42.85;;
6406;SDS011;3236;51.022;6.818;2022-07-23T02:40:30;108.55;;;43.97;;
6406;SDS011;3236;51.022;6.818;2022-07-23T02:42:58;119.30;;;44.88;;
6406;SDS011;3236;51.022;6.818;2022-07-23T02:45:25;130.18;;;46.00;;
6406;SDS011;3236;51.022;6.818;2022-07-23T02:47:53;133.35;;;45.63;;
6406;SDS011;3236;51.022;6.818;2022-07-23T02:50:21;116.32;;;45.30;;
6406;SDS011;3236;51.022;6.818;2022-07-23T02:52:48;122.07;;;46.40;;
6406;SDS011;3236;51.022;6.818;2022-07-23T02:55:15;123.70;;;45.25;;
6406;SDS011;3236;51.022;6.818;2022-07-23T02:57:42;117.03;;;44.97;;
6406;SDS011;3236;51.022;6.818;2022-07-23T03:00:09;129.82;;;47.13;;
6406;SDS011;3236;51.022;6.818;2022-07-23T03:02:37;131.82;;;44.67;;
6406;SDS011;3236;51.022;6.818;2022-07-23T03:05:04;128.48;;;45.15;;
6406;SDS011;3236;51.022;6.818;2022-07-23T03:07:33;134.95;;;47.25;;
6406;SDS011;3236;51.022;6.818;2022-07-23T03:10:00;145.65;;;47.58;;
6406;SDS011;3236;51.022;6.818;2022-07-23T03:12:27;142.93;;;47.13;;
6406;SDS011;3236;51.022;6.818;2022-07-23T03:14:54;149.73;;;46.10;;
6406;SDS011;3236;51.022;6.818;2022-07-23T03:17:21;138.05;;;46.75;;
6406;SDS011;3236;51.022;6.818;2022-07-23T03:19:48;127.63;;;46.10;;
6406;SDS011;3236;51.022;6.818;2022-07-23T03:22:19;140.15;;;46.72;;
6406;SDS011;3236;51.022;6.818;2022-07-23T03:24:47;141.40;;;45.55;;
6406;SDS011;3236;51.022;6.818;2022-07-23T03:27:19;128.95;;;43.92;;
6406;SDS011;3236;51.022;6.818;2022-07-23T03:29:47;121.80;;;44.60;;
6406;SDS011;3236;51.022;6.818;2022-07-23T03:32:14;132.18;;;44.10;;
6406;SDS011;3236;51.022;6.818;2022-07-23T03:34:41;143.20;;;46.90;;
6406;SDS011;3236;51.022;6.818;2022-07-23T03:37:08;133.30;;;43.72;;
6406;SDS011;3236;51.022;6.818;2022-07-23T03:39:39;148.63;;;49.75;;
6406;SDS011;3236;51.022;6.818;2022-07-23T03:42:07;128.80;;;45.05;;
6406;SDS011;3236;51.022;6.818;2022-07-23T03:44:35;125.57;;;44.58;;
6406;SDS011;3236;51.022;6.818;2022-07-23T03:47:03;136.90;;;47.10;;
6406;SDS011;3236;51.022;6.818;2022-07-23T03:49:36;136.35;;;46.50;;
6406;SDS011;3236;51.022;6.818;2022-07-23T03:52:03;158.90;;;48.72;;
6406;SDS011;3236;51.022;6.818;2022-07-23T03:54:31;156.60;;;49.30;;
6406;SDS011;3236;51.022;6.818;2022-07-23T03:56:58;154.48;;;49.58;;
6406;SDS011;3236;51.022;6.818;2022-07-23T03:59:27;162.75;;;50.88;;
6406;SDS011;3236;51.022;6.818;2022-07-23T04:01:54;151.88;;;48.67;;
6406;SDS011;3236;51.022;6.818;2022-07-23T04:04:21;165.73;;;49.40;;
6406;SDS011;3236;51.022;6.818;2022-07-23T04:06:49;163.20;;;48.85;;
6406;SDS011;3236;51.022;6.818;2022-07-23T04:09:15;171.20;;;49.45;;
6406;SDS011;3236;51.022;6.818;2022-07-23T04:11:43;166.60;;;47.75;;
6406;SDS011;3236;51.022;6.818;2022-07-23T04:14:10;165.82;;;49.92;;
6406;SDS011;3236;51.022;6.818;2022-07-23T04:16:38;170.35;;;48.92;;
6406;SDS011;3236;51.022;6.818;2022-07-23T04:19:05;171.57;;;49.83;;
6406;SDS011;3236;51.022;6.818;2022-07-23T04:21:32;163.02;;;47.60;;
6406;SDS011;3236;51.022;6.818;2022-07-23T04:23:59;156.48;;;48.47;;
6406;SDS011;3236;51.022;6.818;2022-07-23T04:26:26;145.05;;;46.85;;
6406;SDS011;3236;51.022;6.818;2022-07-23T04:28:54;148.05;;;46.17;;
6406;SDS011;3236;51.022;6.818;2022-07-23T04:31:21;136.95;;;44.70;;
6406;SDS011;3236;51.022;6.818;2022-07-23T04:33:49;148.57;;;45.72;;
6406;SDS011;3236;51.022;6.818;2022-07-23T04:36:16;124.20;;;44.47;;
6406;SDS011;3236;51.022;6.818;2022-07-23T04:38:43;141.65;;;45.13;;
6406;SDS011;3236;51.022;6.818;2022-07-23T04:41:10;138.07;;;46.17;;
6406;SDS011;3236;51.022;6.818;2022-07-23T04:43:37;121.75;;;42.65;;
6406;SDS011;3236;51.022;6.818;2022-07-23T04:46:05;129.73;;;44.63;;
6406;SDS011;3236;51.022;6.818;2022-07-23T04:48:32;121.65;;;44.67;;
6406;SDS011;3236;51.022;6.818;2022-07-23T04:51:01;142.40;;;46.50;;
6406;SDS011;3236;51.022;6.818;2022-07-23T04:53:28;133.80;;;46.38;;
6406;SDS011;3236;51.022;6.818;2022-07-23T04:55:55;126.43;;;45.13;;
6406;SDS011;3236;51.022;6.818;2022-07-23T04:58:22;115.30;;;41.42;;
6406;SDS011;3236;51.022;6.818;2022-07-23T05:00:50;111.63;;;40.33;;
6406;SDS011;3236;51.022;6.818;2022-07-23T05:03:17;100.43;;;38.35;;
6406;SDS011;3236;51.022;6.818;2022-07-23T05:05:44;107.35;;;39.30;;
6406;SDS011;3236;51.022;6.818;2022-07-23T05:08:12;107.88;;;37.63;;
6406;SDS011;3236;51.022;6.818;2022-07-23T05:10:39;98.72;;;40.13;;
6406;SDS011;3236;51.022;6.818;2022-07-23T05:13:07;101.63;;;40.20;;
6406;SDS011;3236;51.022;6.818;2022-07-23T05:15:34;103.60;;;41.63;;
6406;SDS011;3236;51.022;6.818;2022-07-23T05:18:01;111.50;;;40.92;;
6406;SDS011;3236;51.022;6.818;2022-07-23T05:20:28;98.50;;;40.22;;
6406;SDS011;3236;51.022;6.818;2022-07-23T05:22:55;93.05;;;39.58;;
6406;SDS011;3236;51.022;6.818;2022-07-23T05:25:27;83.53;;;38.53;;
6406;SDS011;3236;51.022;6.818;2022-07-23T05:27:54;86.07;;;37.92;;
6406;SDS011;3236;51.022;6.818;2022-07-23T05:30:21;83.10;;;37.85;;
6406;SDS011;3236;51.022;6.818;2022-07-23T05:32:48;83.28;;;38.50;;
6406;SDS011;3236;51.022;6.818;2022-07-23T05:35:15;82.75;;;38.50;;
6406;SDS011;3236;51.022;6.818;2022-07-23T05:37:42;80.65;;;37.05;;
6406;SDS011;3236;51.022;6.818;2022-07-23T05:40:10;79.43;;;37.33;;
6406;SDS011;3236;51.022;6.818;2022-07-23T05:42:39;76.13;;;38.45;;
6406;SDS011;3236;51.022;6.818;2022-07-23T05:45:07;77.10;;;38.38;;
6406;SDS011;3236;51.022;6.818;2022-07-23T05:47:39;82.00;;;39.10;;
6406;SDS011;3236;51.022;6.818;2022-07-23T05:50:07;83.00;;;38.15;;
6406;SDS011;3236;51.022;6.818;2022-07-23T05:52:34;71.07;;;38.67;;
6406;SDS011;3236;51.022;6.818;2022-07-23T05:55:01;74.65;;;37.65;;
6406;SDS011;3236;51.022;6.818;2022-07-23T05:57:28;75.53;;;39.10;;
6406;SDS011;3236;51.022;6.818;2022-07-23T05:59:57;72.75;;;38.50;;
6406;SDS011;3236;51.022;6.818;2022-07-23T06:02:24;74.45;;;37.42;;
6406;SDS011;3236;51.022;6.818;2022-07-23T06:04:51;75.25;;;36.42;;
6406;SDS011;3236;51.022;6.818;2022-07-23T06:07:18;77.53;;;39.33;;
6406;SDS011;3236;51.022;6.818;2022-07-23T06:09:45;72.60;;;36.95;;
6406;SDS011;3236;51.022;6.818;2022-07-23T06:12:14;68.05;;;33.45;;
6406;SDS011;3236;51.022;6.818;2022-07-23T06:14:44;71.25;;;34.97;;
6406;SDS011;3236;51.022;6.818;2022-07-23T06:17:15;73.75;;;34.63;;
6406;SDS011;3236;51.022;6.818;2022-07-23T06:19:42;66.32;;;32.53;;
6406;SDS011;3236;51.022;6.818;2022-07-23T06:22:09;60.67;;;32.53;;
6406;SDS011;3236;51.022;6.818;2022-07-23T06:24:36;56.42;;;31.95;;
6406;SDS011;3236;51.022;6.818;2022-07-23T06:27:04;58.28;;;30.13;;
6406;SDS011;3236;51.022;6.818;2022-07-23T06:29:30;62.33;;;29.98;;
6406;SDS011;3236;51.022;6.818;2022-07-23T06:31:58;55.95;;;29.80;;
6406;SDS011;3236;51.022;6.818;2022-07-23T06:34:26;58.92;;;29.33;;
6406;SDS011;3236;51.022;6.818;2022-07-23T06:36:53;57.60;;;27.90;;
6406;SDS011;3236;51.022;6.818;2022-07-23T06:39:20;52.42;;;26.08;;
6406;SDS011;3236;51.022;6.818;2022-07-23T06:41:47;49.88;;;27.90;;
6406;SDS011;3236;51.022;6.818;2022-07-23T06:44:17;47.67;;;25.73;;
6406;SDS011;3236;51.022;6.818;2022-07-23T06:46:44;45.38;;;25.63;;
6406;SDS011;3236;51.022;6.818;2022-07-23T06:49:11;39.45;;;24.92;;
6406;SDS011;3236;51.022;6.818;2022-07-23T06:51:40;44.65;;;24.23;;
6406;SDS011;3236;51.022;6.818;2022-07-23T06:54:07;43.15;;;23.45;;
6406;SDS011;3236;51.022;6.818;2022-07-23T06:56:34;40.38;;;22.63;;
6406;SDS011;3236;51.022;6.818;2022-07-23T06:59:04;45.03;;;24.05;;
6406;SDS011;3236;51.022;6.818;2022-07-23T07:01:31;47.42;;;22.67;;
6406;SDS011;3236;51.022;6.818;2022-07-23T07:03:58;34.80;;;21.08;;
6406;SDS011;3236;51.022;6.818;2022-07-23T07:06:25;35.67;;;21.05;;
6406;SDS011;3236;51.022;6.818;2022-07-23T07:08:54;28.90;;;18.52;;
6406;SDS011;3236;51.022;6.818;2022-07-23T07:11:21;27.80;;;17.83;;
6406;SDS011;3236;51.022;6.818;2022-07-23T07:13:50;33.75;;;17.10;;
6406;SDS011;3236;51.022;6.818;2022-07-23T07:16:17;27.23;;;16.42;;
6406;SDS011;3236;51.022;6.818;2022-07-23T07:18:44;27.20;;;16.63;;
6406;SDS011;3236;51.022;6.818;2022-07-23T07:21:11;23.27;;;15.00;;
6406;SDS011;3236;51.022;6.818;2022-07-23T07:23:38;25.40;;;14.95;;
6406;SDS011;3236;51.022;6.818;2022-07-23T07:26:07;28.48;;;15.43;;
6406;SDS011;3236;51.022;6.818;2022-07-23T07:28:34;21.98;;;12.13;;
6406;SDS011;3236;51.022;6.818;2022-07-23T07:31:01;22.63;;;12.48;;
6406;SDS011;3236;51.022;6.818;2022-07-23T07:33:28;22.95;;;12.98;;
6406;SDS011;3236;51.022;6.818;2022-07-23T07:35:57;20.63;;;12.18;;
6406;SDS011;3236;51.022;6.818;2022-07-23T07:38:25;24.00;;;12.35;;
6406;SDS011;3236;51.022;6.818;2022-07-23T07:40:52;23.98;;;14.32;;
6406;SDS011;3236;51.022;6.818;2022-07-23T07:43:20;23.45;;;13.77;;
6406;SDS011;3236;51.022;6.818;2022-07-23T07:45:48;32.58;;;17.20;;
6406;SDS011;3236;51.022;6.818;2022-07-23T07:48:15;36.15;;;17.85;;
6406;SDS011;3236;51.022;6.818;2022-07-23T07:50:42;29.88;;;18.13;;
6406;SDS011;3236;51.022;6.818;2022-07-23T07:53:09;27.17;;;18.50;;
6406;SDS011;3236;51.022;6.818;2022-07-23T07:55:36;32.10;;;20.55;;
6406;SDS011;3236;51.022;6.818;2022-07-23T07:58:03;32.78;;;21.10;;
6406;SDS011;3236;51.022;6.818;2022-07-23T08:00:32;30.05;;;19.70;;
6406;SDS011;3236;51.022;6.818;2022-07-23T08:02:59;28.80;;;15.75;;
6406;SDS011;3236;51.022;6.818;2022-07-23T08:05:27;33.80;;;19.63;;
6406;SDS011;3236;51.022;6.818;2022-07-23T08:07:55;34.15;;;18.73;;
6406;SDS011;3236;51.022;6.818;2022-07-23T08:10:23;27.38;;;17.20;;
6406;SDS011;3236;51.022;6.818;2022-07-23T08:12:52;32.17;;;17.98;;
6406;SDS011;3236;51.022;6.818;2022-07-23T08:15:21;30.67;;;17.77;;
6406;SDS011;3236;51.022;6.818;2022-07-23T08:17:50;29.60;;;16.55;;
6406;SDS011;3236;51.022;6.818;2022-07-23T08:20:18;24.73;;;16.23;;
6406;SDS011;3236;51.022;6.818;2022-07-23T08:22:48;31.40;;;17.65;;
6406;SDS011;3236;51.022;6.818;2022-07-23T08:25:16;34.17;;;17.08;;
6406;SDS011;3236;51.022;6.818;2022-07-23T08:27:49;26.27;;;18.05;;
6406;SDS011;3236;51.022;6.818;2022-07-23T08:30:16;30.13;;;19.23;;
6406;SDS011;3236;51.022;6.818;2022-07-23T08:32:47;31.00;;;18.42;;
6406;SDS011;3236;51.022;6.818;2022-07-23T08:35:17;27.77;;;17.27;;
6406;SDS011;3236;51.022;6.818;2022-07-23T08:37:50;29.20;;;17.10;;
6406;SDS011;3236;51.022;6.818;2022-07-23T08:40:17;27.13;;;17.15;;
6406;SDS011;3236;51.022;6.818;2022-07-23T08:42:46;26.20;;;15.77;;
6406;SDS011;3236;51.022;6.818;2022-07-23T08:45:15;22.95;;;13.52;;
6406;SDS011;3236;51.022;6.818;2022-07-23T08:47:48;29.85;;;16.73;;
6406;SDS011;3236;51.022;6.818;2022-07-23T08:50:17;21.17;;;14.15;;
6406;SDS011;3236;51.022;6.818;2022-07-23T08:52:45;21.50;;;13.57;;
6406;SDS011;3236;51.022;6.818;2022-07-23T08:55:13;23.55;;;14.90;;
6406;SDS011;3236;51.022;6.818;2022-07-23T08:57:41;26.90;;;13.63;;
6406;SDS011;3236;51.022;6.818;2022-07-23T09:00:09;25.83;;;14.35;;
6406;SDS011;3236;51.022;6.818;2022-07-23T09:02:41;23.48;;;13.68;;
6406;SDS011;3236;51.022;6.818;2022-07-23T09:05:09;17.70;;;11.38;;
6406;SDS011;3236;51.022;6.818;2022-07-23T09:08:02;20.23;;;12.85;;
6406;SDS011;3236;51.022;6.818;2022-07-23T09:10:52;18.58;;;12.07;;
6406;SDS011;3236;51.022;6.818;2022-07-23T09:13:23;22.55;;;13.27;;
6406;SDS011;3236;51.022;6.818;2022-07-23T09:15:53;22.67;;;13.30;;
6406;SDS011;3236;51.022;6.818;2022-07-23T09:18:27;18.65;;;12.15;;
6406;SDS011;3236;51.022;6.818;2022-07-23T09:21:06;20.58;;;13.85;;
6406;SDS011;3236;51.022;6.818;2022-07-23T09:23:39;17.30;;;11.73;;
6406;SDS011;3236;51.022;6.818;2022-07-23T09:26:19;15.90;;;11.25;;
6406;SDS011;3236;51.022;6.818;2022-07-23T09:29:07;19.95;;;11.02;;
6406;SDS011;3236;51.022;6.818;2022-07-23T09:31:46;17.52;;;11.57;;
6406;SDS011;3236;51.022;6.818;2022-07-23T09:34:16;18.17;;;12.02;;
6406;SDS011;3236;51.022;6.818;2022-07-23T09:36:44;17.90;;;11.02;;
6406;SDS011;3236;51.022;6.818;2022-07-23T09:39:14;19.70;;;11.20;;
6406;SDS011;3236;51.022;6.818;2022-07-23T09:41:48;13.02;;;9.77;;
6406;SDS011;3236;51.022;6.818;2022-07-23T09:44:16;17.63;;;11.25;;
6406;SDS011;3236;51.022;6.818;2022-07-23T09:46:44;16.30;;;11.05;;
6406;SDS011;3236;51.022;6.818;2022-07-23T09:49:17;16.77;;;10.50;;
6406;SDS011;3236;51.022;6.818;2022-07-23T09:51:47;17.80;;;10.88;;
6406;SDS011;3236;51.022;6.818;2022-07-23T09:54:30;18.58;;;9.70;;
6406;SDS011;3236;51.022;6.818;2022-07-23T09:57:00;17.05;;;9.43;;
6406;SDS011;3236;51.022;6.818;2022-07-23T09:59:31;21.48;;;11.05;;
6406;SDS011;3236;51.022;6.818;2022-07-23T10:02:00;15.32;;;10.05;;
6406;SDS011;3236;51.022;6.818;2022-07-23T10:04:28;14.48;;;10.32;;
6406;SDS011;3236;51.022;6.818;2022-07-23T10:06:56;16.48;;;9.75;;
6406;SDS011;3236;51.022;6.818;2022-07-23T10:09:26;13.52;;;8.20;;
6406;SDS011;3236;51.022;6.818;2022-07-23T10:11:59;13.60;;;8.57;;
6406;SDS011;3236;51.022;6.818;2022-07-23T10:14:38;12.85;;;9.13;;
6406;SDS011;3236;51.022;6.818;2022-07-23T10:17:06;12.32;;;8.32;;
6406;SDS011;3236;51.022;6.818;2022-07-23T10:19:33;13.70;;;8.68;;
6406;SDS011;3236;51.022;6.818;2022-07-23T10:22:01;14.05;;;9.80;;
6406;SDS011;3236;51.022;6.818;2022-07-23T10:24:40;14.80;;;9.73;;
6406;SDS011;3236;51.022;6.818;2022-07-23T10:27:35;13.57;;;8.95;;
6406;SDS011;3236;51.022;6.818;2022-07-23T10:30:12;13.68;;;9.00;;
6406;SDS011;3236;51.022;6.818;2022-07-23T10:32:48;10.23;;;8.98;;
6406;SDS011;3236;51.022;6.818;2022-07-23T10:35:25;9.50;;;8.50;;
6406;SDS011;3236;51.022;6.818;2022-07-23T10:38:00;12.40;;;10.23;;
6406;SDS011;3236;51.022;6.818;2022-07-23T10:40:33;11.23;;;8.45;;
6406;SDS011;3236;51.022;6.818;2022-07-23T10:43:02;12.52;;;9.23;;
6406;SDS011;3236;51.022;6.818;2022-07-23T10:45:41;14.87;;;9.37;;
6406;SDS011;3236;51.022;6.818;2022-07-23T10:48:12;12.73;;;8.73;;
6406;SDS011;3236;51.022;6.818;2022-07-23T10:50:44;9.07;;;7.05;;
6406;SDS011;3236;51.022;6.818;2022-07-23T10:59:32;12.55;;;6.55;;
6406;SDS011;3236;51.022;6.818;2022-07-23T11:02:38;10.95;;;7.03;;
6406;SDS011;3236;51.022;6.818;2022-07-23T11:05:07;10.90;;;8.32;;
6406;SDS011;3236;51.022;6.818;2022-07-23T11:07:36;11.73;;;7.05;;
6406;SDS011;3236;51.022;6.818;2022-07-23T11:10:33;10.70;;;6.30;;
6406;SDS011;3236;51.022;6.818;2022-07-23T11:18:54;11.35;;;7.13;;
6406;SDS011;3236;51.022;6.818;2022-07-23T11:24:15;9.80;;;6.55;;
6406;SDS011;3236;51.022;6.818;2022-07-23T11:26:44;8.75;;;4.93;;
6406;SDS011;3236;51.022;6.818;2022-07-23T11:29:45;9.55;;;5.63;;
6406;SDS011;3236;51.022;6.818;2022-07-23T11:32:27;5.72;;;4.43;;
6406;SDS011;3236;51.022;6.818;2022-07-23T11:35:01;9.52;;;5.60;;
6406;SDS011;3236;51.022;6.818;2022-07-23T11:37:30;8.98;;;5.13;;
6406;SDS011;3236;51.022;6.818;2022-07-23T11:39:59;7.63;;;4.63;;
6406;SDS011;3236;51.022;6.818;2022-07-23T11:42:30;7.43;;;4.30;;
6406;SDS011;3236;51.022;6.818;2022-07-23T11:44:58;8.18;;;4.28;;
6406;SDS011;3236;51.022;6.818;2022-07-23T11:47:26;5.15;;;3.85;;
6406;SDS011;3236;51.022;6.818;2022-07-23T11:49:54;6.20;;;4.55;;
6406;SDS011;3236;51.022;6.818;2022-07-23T11:52:25;9.68;;;3.92;;
6406;SDS011;3236;51.022;6.818;2022-07-23T11:54:55;6.38;;;3.70;;
6406;SDS011;3236;51.022;6.818;2022-07-23T11:57:24;7.78;;;3.88;;
6406;SDS011;3236;51.022;6.818;2022-07-23T11:59:53;6.53;;;4.57;;
6406;SDS011;3236;51.022;6.818;2022-07-23T12:02:22;7.70;;;4.90;;
6406;SDS011;3236;51.022;6.818;2022-07-23T12:04:52;6.13;;;4.00;;
6406;SDS011;3236;51.022;6.818;2022-07-23T12:07:26;6.50;;;3.40;;
6406;SDS011;3236;51.022;6.818;2022-07-23T12:09:56;4.30;;;3.42;;
6406;SDS011;3236;51.022;6.818;2022-07-23T12:12:25;4.72;;;3.58;;
6406;SDS011;3236;51.022;6.818;2022-07-23T12:14:53;9.23;;;3.63;;
6406;SDS011;3236;51.022;6.818;2022-07-23T12:17:28;6.75;;;3.40;;
6406;SDS011;3236;51.022;6.818;2022-07-23T12:19:57;3.33;;;2.67;;
6406;SDS011;3236;51.022;6.818;2022-07-23T12:22:32;4.28;;;3.10;;
6406;SDS011;3236;51.022;6.818;2022-07-23T12:25:02;5.07;;;2.50;;
6406;SDS011;3236;51.022;6.818;2022-07-23T12:27:31;5.00;;;2.88;;
6406;SDS011;3236;51.022;6.818;2022-07-23T12:29:58;4.28;;;2.83;;
6406;SDS011;3236;51.022;6.818;2022-07-23T12:32:42;3.58;;;2.90;;
6406;SDS011;3236;51.022;6.818;2022-07-23T12:35:14;3.70;;;2.38;;
6406;SDS011;3236;51.022;6.818;2022-07-23T12:37:43;3.05;;;2.72;;
6406;SDS011;3236;51.022;6.818;2022-07-23T12:40:21;5.25;;;3.30;;
6406;SDS011;3236;51.022;6.818;2022-07-23T12:42:51;4.68;;;2.25;;
6406;SDS011;3236;51.022;6.818;2022-07-23T12:45:20;3.55;;;2.92;;
6406;SDS011;3236;51.022;6.818;2022-07-23T12:48:01;6.13;;;2.30;;
6406;SDS011;3236;51.022;6.818;2022-07-23T12:50:39;4.03;;;2.70;;
6406;SDS011;3236;51.022;6.818;2022-07-23T12:53:12;3.40;;;3.05;;
6406;SDS011;3236;51.022;6.818;2022-07-23T12:55:41;5.07;;;3.15;;
6406;SDS011;3236;51.022;6.818;2022-07-23T12:58:10;4.10;;;2.35;;
6406;SDS011;3236;51.022;6.818;2022-07-23T13:00:51;3.90;;;2.75;;
6406;SDS011;3236;51.022;6.818;2022-07-23T13:03:26;3.33;;;2.30;;
6406;SDS011;3236;51.022;6.818;2022-07-23T13:05:57;4.55;;;2.53;;
6406;SDS011;3236;51.022;6.818;2022-07-23T13:08:26;4.20;;;2.85;;
6406;SDS011;3236;51.022;6.818;2022-07-23T13:10:54;2.60;;;2.40;;
6406;SDS011;3236;51.022;6.818;2022-07-23T13:13:22;5.90;;;2.42;;
6406;SDS011;3236;51.022;6.818;2022-07-23T13:15:54;5.88;;;2.42;;
6406;SDS011;3236;51.022;6.818;2022-07-23T13:18:21;6.03;;;2.63;;
6406;SDS011;3236;51.022;6.818;2022-07-23T13:20:49;4.22;;;2.30;;
6406;SDS011;3236;51.022;6.818;2022-07-23T13:23:19;4.63;;;2.50;;
6406;SDS011;3236;51.022;6.818;2022-07-23T13:25:46;5.25;;;2.30;;
6406;SDS011;3236;51.022;6.818;2022-07-23T13:28:13;3.88;;;2.33;;
6406;SDS011;3236;51.022;6.818;2022-07-23T13:30:46;4.00;;;2.25;;
6406;SDS011;3236;51.022;6.818;2022-07-23T13:33:16;3.72;;;2.22;;
6406;SDS011;3236;51.022;6.818;2022-07-23T13:35:44;5.18;;;2.42;;
6406;SDS011;3236;51.022;6.818;2022-07-23T13:38:11;5.43;;;2.67;;
6406;SDS011;3236;51.022;6.818;2022-07-23T13:40:40;3.63;;;2.50;;
6406;SDS011;3236;51.022;6.818;2022-07-23T13:43:09;6.05;;;3.00;;
6406;SDS011;3236;51.022;6.818;2022-07-23T13:45:36;4.93;;;3.30;;
6406;SDS011;3236;51.022;6.818;2022-07-23T13:48:10;6.43;;;3.40;;
6406;SDS011;3236;51.022;6.818;2022-07-23T13:50:38;4.15;;;2.53;;
6406;SDS011;3236;51.022;6.818;2022-07-23T13:53:08;5.80;;;2.50;;
6406;SDS011;3236;51.022;6.818;2022-07-23T13:55:41;3.05;;;2.20;;
6406;SDS011;3236;51.022;6.818;2022-07-23T13:58:09;2.80;;;2.60;;
6406;SDS011;3236;51.022;6.818;2022-07-23T14:00:37;3.65;;;2.45;;
6406;SDS011;3236;51.022;6.818;2022-07-23T14:03:06;3.60;;;2.30;;
6406;SDS011;3236;51.022;6.818;2022-07-23T14:05:33;3.38;;;2.45;;
6406;SDS011;3236;51.022;6.818;2022-07-23T14:08:00;4.22;;;2.85;;
6406;SDS011;3236;51.022;6.818;2022-07-23T14:10:28;4.68;;;2.58;;
6406;SDS011;3236;51.022;6.818;2022-07-23T14:12:57;8.63;;;3.17;;
6406;SDS011;3236;51.022;6.818;2022-07-23T14:15:25;4.60;;;2.78;;
6406;SDS011;3236;51.022;6.818;2022-07-23T14:17:53;9.02;;;4.30;;
6406;SDS011;3236;51.022;6.818;2022-07-23T14:20:20;6.15;;;2.60;;
6406;SDS011;3236;51.022;6.818;2022-07-23T14:22:48;5.20;;;2.40;;
6406;SDS011;3236;51.022;6.818;2022-07-23T14:25:15;5.10;;;2.22;;
6406;SDS011;3236;51.022;6.818;2022-07-23T14:27:45;5.85;;;2.70;;
6406;SDS011;3236;51.022;6.818;2022-07-23T14:30:14;3.60;;;2.55;;
6406;SDS011;3236;51.022;6.818;2022-07-23T14:32:41;5.47;;;2.35;;
6406;SDS011;3236;51.022;6.818;2022-07-23T14:35:11;2.90;;;2.45;;
6406;SDS011;3236;51.022;6.818;2022-07-23T14:37:38;4.68;;;2.50;;
6406;SDS011;3236;51.022;6.818;2022-07-23T14:40:07;3.45;;;2.67;;
6406;SDS011;3236;51.022;6.818;2022-07-23T14:42:34;2.70;;;2.35;;
6406;SDS011;3236;51.022;6.818;2022-07-23T14:45:01;5.30;;;2.40;;
6406;SDS011;3236;51.022;6.818;2022-07-23T14:47:31;3.53;;;2.22;;
6406;SDS011;3236;51.022;6.818;2022-07-23T14:49:58;5.07;;;2.20;;
6406;SDS011;3236;51.022;6.818;2022-07-23T14:52:25;4.40;;;2.33;;
6406;SDS011;3236;51.022;6.818;2022-07-23T14:54:53;3.35;;;2.30;;
6406;SDS011;3236;51.022;6.818;2022-07-23T14:57:20;2.10;;;1.90;;
6406;SDS011;3236;51.022;6.818;2022-07-23T14:59:47;4.78;;;2.50;;
6406;SDS011;3236;51.022;6.818;2022-07-23T15:02:15;5.03;;;2.42;;
6406;SDS011;3236;51.022;6.818;2022-07-23T15:04:43;3.92;;;2.38;;
6406;SDS011;3236;51.022;6.818;2022-07-23T15:07:10;5.07;;;2.10;;
6406;SDS011;3236;51.022;6.818;2022-07-23T15:09:38;3.83;;;2.20;;
6406;SDS011;3236;51.022;6.818;2022-07-23T15:12:05;4.22;;;2.47;;
6406;SDS011;3236;51.022;6.818;2022-07-23T15:14:32;5.35;;;2.67;;
6406;SDS011;3236;51.022;6.818;2022-07-23T15:17:06;3.80;;;2.50;;
6406;SDS011;3236;51.022;6.818;2022-07-23T15:19:34;2.95;;;2.65;;